createdAt,value
2023-12-30T00:02:59.720Z,47.53
2023-12-30T00:06:03.085Z,44.30
2023-12-30T00:09:06.163Z,43.17
2023-12-30T00:12:10.589Z,40.03
2023-12-30T00:15:13.816Z,45.83
2023-12-30T00:18:17.388Z,41.92
2023-12-30T00:21:21.166Z,41.13
2023-12-30T00:24:24.754Z,41.85
2023-12-30T00:27:27.696Z,43.90
2023-12-30T00:30:31.150Z,41.17
2023-12-30T00:33:34.346Z,38.03
2023-12-30T00:36:45.108Z,36.35
2023-12-30T00:39:49.059Z,40.08
2023-12-30T00:42:52.414Z,36.07
2023-12-30T00:45:55.388Z,36.63
2023-12-30T00:48:58.935Z,33.25
2023-12-30T00:52:02.180Z,36.88
2023-12-30T00:55:06.099Z,33.17
2023-12-30T00:58:09.150Z,33.72
2023-12-30T01:01:12.617Z,35.75
2023-12-30T01:04:15.434Z,32.00
2023-12-30T01:07:18.722Z,32.20
2023-12-30T01:10:21.605Z,32.28
2023-12-30T01:13:25.473Z,34.55
2023-12-30T01:16:28.478Z,37.35
2023-12-30T01:19:31.863Z,30.10
2023-12-30T01:22:35.017Z,31.60
2023-12-30T01:25:40.031Z,36.17
2023-12-30T01:28:42.879Z,34.53
2023-12-30T01:31:46.163Z,33.83
2023-12-30T01:34:49.102Z,39.83
2023-12-30T01:37:52.334Z,36.28
2023-12-30T01:40:56.974Z,35.40
2023-12-30T01:44:00.458Z,37.40
2023-12-30T01:47:03.383Z,33.67
2023-12-30T01:50:08.109Z,36.47
2023-12-30T01:53:12.177Z,34.17
2023-12-30T01:56:16.290Z,28.87
2023-12-30T01:59:20.287Z,29.00
2023-12-30T02:02:24.307Z,30.75
2023-12-30T02:05:27.552Z,31.30
2023-12-30T02:08:30.582Z,25.00
2023-12-30T02:11:34.773Z,33.40
2023-12-30T02:14:37.603Z,34.22
2023-12-30T02:17:41.617Z,31.20
2023-12-30T02:20:44.872Z,31.90
2023-12-30T02:23:54.963Z,32.25
2023-12-30T02:26:58.560Z,29.67
2023-12-30T02:30:01.393Z,31.42
2023-12-30T02:33:05.394Z,30.33
2023-12-30T02:36:08.742Z,26.80
2023-12-30T02:39:12.547Z,27.27
2023-12-30T02:42:15.439Z,26.30
2023-12-30T02:45:18.960Z,27.58
2023-12-30T02:48:21.984Z,29.05
2023-12-30T02:51:25.716Z,27.67
2023-12-30T02:54:29.822Z,27.10
2023-12-30T02:57:33.452Z,28.77
2023-12-30T03:00:50.781Z,29.27
2023-12-30T03:03:55.789Z,30.65
2023-12-30T03:06:58.734Z,29.12
2023-12-30T03:10:02.256Z,30.20
2023-12-30T03:13:05.649Z,31.30
2023-12-30T03:16:09.397Z,27.83
2023-12-30T03:19:12.671Z,24.33
2023-12-30T03:22:16.116Z,27.13
2023-12-30T03:25:19.528Z,28.25
2023-12-30T03:28:22.922Z,26.45
2023-12-30T03:31:30.768Z,29.05
2023-12-30T03:34:34.199Z,28.10
2023-12-30T03:37:37.553Z,32.13
2023-12-30T03:40:40.903Z,30.15
2023-12-30T03:43:44.379Z,28.45
2023-12-30T03:46:48.106Z,27.03
2023-12-30T03:49:50.916Z,31.55
2023-12-30T03:52:54.799Z,31.45
2023-12-30T03:55:58.075Z,32.10
2023-12-30T03:59:01.371Z,37.72
2023-12-30T04:02:04.525Z,33.40
2023-12-30T04:05:08.312Z,32.25
2023-12-30T04:08:11.407Z,32.30
2023-12-30T04:11:15.342Z,31.40
2023-12-30T04:14:19.029Z,38.55
2023-12-30T04:17:22.343Z,35.15
2023-12-30T04:20:25.297Z,31.27
2023-12-30T04:23:29.218Z,38.58
2023-12-30T04:26:32.646Z,38.20
2023-12-30T04:29:35.904Z,41.55
2023-12-30T04:32:38.946Z,41.17
2023-12-30T04:35:43.102Z,36.28
2023-12-30T04:38:47.885Z,41.25
2023-12-30T04:41:51.322Z,34.03
2023-12-30T04:44:55.538Z,20.35
2023-12-30T04:47:58.675Z,37.58
2023-12-30T04:51:01.538Z,31.98
2023-12-30T04:54:05.269Z,36.67
2023-12-30T04:57:08.707Z,33.10
2023-12-30T05:00:12.502Z,34.13
2023-12-30T05:03:16.982Z,25.60
2023-12-30T05:06:24.727Z,31.10
2023-12-30T05:09:27.583Z,33.72
2023-12-30T05:12:30.814Z,27.58
2023-12-30T05:15:33.969Z,36.53
2023-12-30T05:18:37.871Z,36.92
2023-12-30T05:21:42.783Z,38.70
2023-12-30T05:24:46.429Z,39.92
2023-12-30T05:27:49.521Z,42.45
2023-12-30T05:30:52.769Z,44.80
2023-12-30T05:33:56.180Z,65.20
2023-12-30T05:36:59.615Z,41.92
2023-12-30T05:40:03.085Z,63.10
2023-12-30T05:43:07.581Z,59.83
2023-12-30T05:46:17.540Z,55.58
2023-12-30T05:49:20.919Z,53.67
2023-12-30T05:52:24.042Z,53.13
2023-12-30T05:55:27.690Z,37.10
2023-12-30T05:58:30.651Z,90.35
2023-12-30T06:01:34.015Z,83.60
2023-12-30T06:04:41.732Z,81.63
2023-12-30T06:07:44.843Z,75.27
2023-12-30T06:10:53.012Z,85.68
2023-12-30T06:13:56.422Z,72.15
2023-12-30T06:16:59.631Z,66.80
2023-12-30T06:20:02.771Z,59.23
2023-12-30T06:23:06.139Z,56.33
2023-12-30T06:26:09.212Z,48.72
2023-12-30T06:29:12.878Z,57.60
2023-12-30T06:32:15.809Z,66.17
2023-12-30T06:35:19.307Z,58.92
2023-12-30T06:38:22.530Z,68.62
2023-12-30T06:41:25.746Z,71.15
2023-12-30T06:44:28.864Z,57.97
2023-12-30T06:47:32.098Z,72.47
2023-12-30T06:50:35.043Z,96.28
2023-12-30T06:53:39.130Z,102.70
2023-12-30T06:56:42.358Z,106.22
2023-12-30T06:59:45.385Z,107.97
2023-12-30T07:02:49.102Z,142.35
2023-12-30T07:05:52.406Z,153.50
2023-12-30T07:08:55.274Z,129.85
2023-12-30T07:11:58.522Z,123.90
2023-12-30T07:15:01.627Z,123.50
2023-12-30T07:18:05.360Z,112.87
2023-12-30T07:21:08.360Z,123.10
2023-12-30T07:24:11.888Z,205.90
2023-12-30T07:27:16.088Z,118.80
2023-12-30T07:30:19.595Z,97.30
2023-12-30T07:33:23.706Z,116.62
2023-12-30T07:36:28.482Z,163.35
2023-12-30T07:39:34.297Z,108.20
2023-12-30T07:42:37.821Z,71.75
2023-12-30T07:45:41.057Z,93.80
2023-12-30T07:48:45.649Z,95.05
2023-12-30T07:51:48.823Z,93.67
2023-12-30T07:54:51.916Z,122.80
2023-12-30T07:57:54.916Z,104.32
2023-12-30T08:00:58.243Z,105.00
2023-12-30T08:04:02.203Z,83.05
2023-12-30T08:07:05.348Z,80.50
2023-12-30T08:10:08.967Z,88.78
2023-12-30T08:13:30.874Z,71.40
2023-12-30T08:16:38.145Z,86.95
2023-12-30T08:19:41.467Z,59.73
2023-12-30T08:22:45.523Z,59.53
2023-12-30T08:25:48.625Z,52.17
2023-12-30T08:28:53.153Z,54.90
2023-12-30T08:31:56.151Z,59.50
2023-12-30T08:34:59.816Z,48.73
2023-12-30T08:38:02.966Z,46.17
2023-12-30T08:41:11.372Z,44.25
2023-12-30T08:44:14.297Z,40.95
2023-12-30T08:47:18.166Z,50.67
2023-12-30T08:50:21.039Z,49.78
2023-12-30T08:53:26.522Z,49.15
2023-12-30T08:56:35.136Z,52.05
2023-12-30T08:59:39.793Z,45.25
2023-12-30T09:02:48.588Z,52.03
2023-12-30T09:05:51.919Z,39.85
2023-12-30T09:08:54.878Z,43.58
2023-12-30T09:11:58.150Z,46.85
2023-12-30T09:15:00.879Z,51.60
2023-12-30T09:18:04.663Z,53.90
2023-12-30T09:21:07.566Z,34.60
2023-12-30T09:24:11.100Z,35.38
2023-12-30T09:27:13.921Z,27.17
2023-12-30T09:30:17.308Z,29.65
2023-12-30T09:33:20.717Z,24.07
2023-12-30T09:36:24.329Z,21.52
2023-12-30T09:39:28.180Z,25.33
2023-12-30T09:42:31.379Z,26.42
2023-12-30T09:45:35.944Z,19.42
2023-12-30T09:48:41.119Z,21.70
2023-12-30T09:51:44.300Z,27.98
2023-12-30T09:54:49.514Z,19.37
2023-12-30T09:57:52.759Z,27.87
2023-12-30T10:00:56.004Z,19.83
2023-12-30T10:03:59.667Z,20.33
2023-12-30T10:07:04.429Z,18.73
2023-12-30T10:10:09.515Z,19.60
2023-12-30T10:13:14.237Z,29.20
2023-12-30T10:16:18.593Z,21.10
2023-12-30T10:19:21.616Z,21.53
2023-12-30T10:22:25.141Z,22.62
2023-12-30T10:25:28.003Z,21.83
2023-12-30T10:28:31.909Z,19.73
2023-12-30T10:31:35.143Z,23.42
2023-12-30T10:34:42.485Z,24.53
2023-12-30T10:37:48.774Z,25.45
2023-12-30T10:40:55.209Z,21.67
2023-12-30T10:43:58.664Z,22.33
2023-12-30T10:47:04.271Z,25.08
2023-12-30T10:50:11.262Z,25.87
2023-12-30T10:53:24.664Z,22.62
2023-12-30T10:56:31.558Z,20.73
2023-12-30T10:59:38.746Z,19.42
2023-12-30T11:02:42.593Z,20.83
2023-12-30T11:05:58.342Z,20.10
2023-12-30T11:09:08.298Z,20.65
2023-12-30T11:12:11.727Z,17.27
2023-12-30T11:15:31.977Z,22.70
2023-12-30T11:18:51.216Z,28.08
2023-12-30T11:22:02.830Z,31.30
2023-12-30T11:25:06.528Z,24.23
2023-12-30T11:28:19.610Z,19.45
2023-12-30T11:31:35.308Z,18.48
2023-12-30T11:34:38.273Z,20.95
2023-12-30T11:37:45.600Z,22.27
2023-12-30T11:40:55.886Z,19.80
2023-12-30T11:44:01.623Z,20.73
2023-12-30T11:47:04.939Z,21.60
2023-12-30T11:50:11.400Z,24.70
2023-12-30T11:53:17.128Z,24.90
2023-12-30T11:56:22.959Z,21.25
2023-12-30T11:59:26.501Z,28.45
2023-12-30T12:02:29.862Z,25.08
2023-12-30T12:05:34.985Z,25.58
2023-12-30T12:08:39.648Z,20.00
2023-12-30T12:11:44.096Z,21.33
2023-12-30T12:14:54.213Z,20.33
2023-12-30T12:17:58.074Z,26.33
2023-12-30T12:21:04.658Z,21.02
2023-12-30T12:24:07.881Z,21.43
2023-12-30T12:27:11.360Z,22.58
2023-12-30T12:30:14.719Z,23.65
2023-12-30T12:33:22.504Z,22.65
2023-12-30T12:36:27.019Z,21.15
2023-12-30T12:39:31.631Z,24.93
2023-12-30T12:42:35.191Z,21.85
2023-12-30T12:45:38.239Z,19.80
2023-12-30T12:48:41.590Z,19.20
2023-12-30T12:51:45.694Z,13.75
2023-12-30T12:54:49.113Z,8.90
2023-12-30T12:57:52.261Z,7.45
2023-12-30T13:00:55.596Z,10.57
2023-12-30T13:03:59.885Z,13.50
2023-12-30T13:07:03.472Z,10.57
2023-12-30T13:10:34.087Z,10.17
2023-12-30T13:13:37.799Z,8.65
2023-12-30T13:16:43.153Z,9.40
2023-12-30T13:19:47.521Z,9.38
2023-12-30T13:22:56.841Z,8.73
2023-12-30T13:26:03.290Z,9.10
2023-12-30T13:29:07.775Z,9.32
2023-12-30T13:32:12.498Z,10.15
2023-12-30T13:35:15.394Z,9.98
2023-12-30T13:38:24.634Z,9.43
2023-12-30T13:41:27.513Z,9.07
2023-12-30T13:44:36.910Z,8.73
2023-12-30T13:47:45.671Z,9.57
2023-12-30T13:50:56.081Z,10.05
2023-12-30T13:54:01.060Z,10.25
2023-12-30T13:57:14.296Z,9.57
2023-12-30T14:00:19.551Z,10.27
2023-12-30T14:03:24.566Z,11.63
2023-12-30T14:06:36.327Z,12.50
2023-12-30T14:09:51.560Z,25.98
2023-12-30T14:13:02.043Z,17.40
2023-12-30T14:16:07.351Z,26.83
2023-12-30T14:19:10.763Z,28.73
2023-12-30T14:22:17.593Z,12.10
2023-12-30T14:25:20.430Z,10.23
2023-12-30T14:28:23.932Z,8.17
2023-12-30T14:31:26.961Z,9.90
2023-12-30T14:34:30.808Z,9.10
2023-12-30T14:37:33.983Z,11.05
2023-12-30T14:40:37.593Z,10.10
2023-12-30T14:43:40.529Z,9.73
2023-12-30T14:46:44.065Z,10.60
2023-12-30T14:49:47.034Z,10.93
2023-12-30T14:52:50.284Z,10.70
2023-12-30T14:55:53.139Z,10.13
2023-12-30T14:58:56.569Z,10.00
2023-12-30T15:01:59.675Z,13.65
2023-12-30T15:05:03.193Z,22.98
2023-12-30T15:08:06.462Z,20.67
2023-12-30T15:11:10.432Z,25.65
2023-12-30T15:14:13.396Z,33.57
2023-12-30T15:17:16.751Z,32.35
2023-12-30T15:20:20.738Z,32.17
2023-12-30T15:23:24.337Z,31.58
2023-12-30T15:26:27.378Z,30.58
2023-12-30T15:29:30.457Z,31.30
2023-12-30T15:32:33.795Z,34.10
2023-12-30T15:35:37.452Z,33.35
2023-12-30T15:38:40.587Z,31.73
2023-12-30T15:41:45.900Z,30.48
2023-12-30T15:44:49.566Z,36.07
2023-12-30T15:47:53.021Z,39.50
2023-12-30T15:50:56.111Z,45.50
2023-12-30T15:53:59.957Z,62.80
2023-12-30T15:57:03.201Z,63.45
2023-12-30T16:00:09.915Z,49.07
2023-12-30T16:03:15.272Z,46.97
2023-12-30T16:06:19.293Z,48.00
2023-12-30T16:09:22.930Z,54.85
2023-12-30T16:12:26.235Z,54.25
2023-12-30T16:15:31.126Z,69.10
2023-12-30T16:18:34.207Z,51.17
2023-12-30T16:21:38.329Z,100.30
2023-12-30T16:24:43.120Z,65.40
2023-12-30T16:27:49.141Z,60.17
2023-12-30T16:30:56.423Z,49.93
2023-12-30T16:34:01.387Z,45.53
2023-12-30T16:37:06.749Z,49.63
2023-12-30T16:40:12.407Z,46.97
2023-12-30T16:43:16.294Z,46.97
2023-12-30T16:46:20.393Z,43.07
2023-12-30T16:49:23.366Z,46.33
2023-12-30T16:52:27.125Z,53.97
2023-12-30T16:55:30.376Z,47.90
2023-12-30T16:58:34.575Z,108.05
2023-12-30T17:01:37.982Z,62.07
2023-12-30T17:04:41.879Z,48.90
2023-12-30T17:07:45.484Z,40.88
2023-12-30T17:10:49.635Z,43.03
2023-12-30T17:13:54.246Z,42.25
2023-12-30T17:16:57.926Z,51.70
2023-12-30T17:20:00.769Z,45.63
2023-12-30T17:23:06.989Z,43.15
2023-12-30T17:26:10.318Z,39.08
2023-12-30T17:29:13.936Z,44.17
2023-12-30T17:32:18.751Z,42.33
2023-12-30T17:35:26.331Z,41.13
2023-12-30T17:38:29.070Z,52.38
2023-12-30T17:41:32.630Z,51.55
2023-12-30T17:44:36.456Z,53.43
2023-12-30T17:47:40.595Z,58.17
2023-12-30T17:50:46.714Z,62.33
2023-12-30T17:53:51.669Z,53.22
2023-12-30T17:56:55.177Z,43.33
2023-12-30T17:59:58.981Z,46.20
2023-12-30T18:03:02.718Z,50.20
2023-12-30T18:06:07.941Z,44.22
2023-12-30T18:09:12.778Z,47.45
2023-12-30T18:12:16.644Z,45.88
2023-12-30T18:15:20.343Z,53.22
2023-12-30T18:18:24.326Z,84.05
2023-12-30T18:21:29.056Z,61.75
2023-12-30T18:24:33.341Z,60.10
2023-12-30T18:27:36.760Z,53.50
2023-12-30T18:30:43.062Z,61.05
2023-12-30T18:33:47.363Z,56.92
2023-12-30T18:36:53.636Z,59.58
2023-12-30T18:39:57.092Z,56.15
2023-12-30T18:43:00.968Z,53.60
2023-12-30T18:46:04.429Z,68.70
2023-12-30T18:49:08.951Z,68.30
2023-12-30T18:52:16.317Z,61.72
2023-12-30T18:55:20.684Z,70.63
2023-12-30T18:58:25.096Z,88.12
2023-12-30T19:01:29.179Z,81.28
2023-12-30T19:04:36.020Z,67.68
2023-12-30T19:07:41.998Z,67.45
2023-12-30T19:10:45.953Z,65.93
2023-12-30T19:13:50.106Z,63.05
2023-12-30T19:16:53.432Z,57.03
2023-12-30T19:20:01.275Z,66.35
2023-12-30T19:23:05.233Z,64.37
2023-12-30T19:26:09.981Z,53.10
2023-12-30T19:29:13.513Z,55.65
2023-12-30T19:32:17.418Z,51.55
2023-12-30T19:35:20.664Z,47.67
2023-12-30T19:38:24.676Z,46.27
2023-12-30T19:41:27.517Z,47.92
2023-12-30T19:44:32.349Z,53.95
2023-12-30T19:47:35.811Z,58.22
2023-12-30T19:50:39.752Z,56.63
2023-12-30T19:53:43.788Z,88.47
2023-12-30T19:56:47.743Z,70.50
2023-12-30T19:59:50.915Z,55.05
2023-12-30T20:02:54.798Z,61.80
2023-12-30T20:05:58.957Z,70.25
2023-12-30T20:09:03.046Z,58.00
2023-12-30T20:12:07.298Z,71.62
2023-12-30T20:15:10.614Z,58.97
2023-12-30T20:18:15.460Z,59.17
2023-12-30T20:21:19.235Z,83.45
2023-12-30T20:24:23.986Z,103.97
2023-12-30T20:27:30.143Z,80.38
2023-12-30T20:30:35.409Z,85.80
2023-12-30T20:33:39.366Z,74.60
2023-12-30T20:36:45.299Z,65.82
2023-12-30T20:39:50.213Z,59.78
2023-12-30T20:42:55.744Z,70.00
2023-12-30T20:46:01.400Z,69.25
2023-12-30T20:49:07.862Z,64.80
2023-12-30T20:52:12.716Z,62.28
2023-12-30T20:55:18.425Z,63.27
2023-12-30T20:58:22.448Z,67.05
2023-12-30T21:01:28.990Z,68.70
2023-12-30T21:04:38.792Z,68.12
2023-12-30T21:07:41.783Z,72.10
2023-12-30T21:10:44.695Z,69.65
2023-12-30T21:13:48.064Z,57.35
2023-12-30T21:16:51.668Z,65.28
2023-12-30T21:19:55.361Z,64.60
2023-12-30T21:22:58.328Z,64.45
2023-12-30T21:26:02.292Z,64.87
2023-12-30T21:29:07.298Z,61.37
2023-12-30T21:32:11.083Z,59.03
2023-12-30T21:35:14.359Z,56.70
2023-12-30T21:38:17.750Z,57.97
2023-12-30T21:41:24.641Z,56.10
2023-12-30T21:44:27.951Z,57.25
2023-12-30T21:47:32.167Z,53.28
2023-12-30T21:50:35.546Z,56.42
2023-12-30T21:53:38.478Z,46.60
2023-12-30T21:56:42.991Z,43.45
2023-12-30T21:59:46.060Z,61.70
2023-12-30T22:02:49.333Z,52.78
2023-12-30T22:05:52.632Z,52.28
2023-12-30T22:08:55.552Z,49.17
2023-12-30T22:11:58.729Z,44.30
2023-12-30T22:15:01.407Z,32.97
2023-12-30T22:18:08.187Z,30.45
2023-12-30T22:21:11.191Z,37.43
2023-12-30T22:24:14.490Z,30.67
2023-12-30T22:27:17.438Z,31.40
2023-12-30T22:30:21.161Z,34.47
2023-12-30T22:33:24.229Z,33.65
2023-12-30T22:36:29.434Z,34.23
2023-12-30T22:39:32.611Z,34.70
2023-12-30T22:42:36.614Z,36.08
2023-12-30T22:45:42.220Z,31.83
2023-12-30T22:48:45.558Z,29.23
2023-12-30T22:51:50.018Z,29.90
2023-12-30T22:54:53.390Z,30.17
2023-12-30T22:57:56.173Z,34.08
2023-12-30T23:00:59.612Z,32.80
2023-12-30T23:04:03.166Z,32.50
2023-12-30T23:07:06.421Z,32.78
2023-12-30T23:10:12.787Z,27.15
2023-12-30T23:13:20.297Z,30.75
2023-12-30T23:16:23.405Z,27.05
2023-12-30T23:19:26.752Z,23.75
2023-12-30T23:22:29.648Z,24.73
2023-12-30T23:25:33.917Z,27.77
2023-12-30T23:28:36.889Z,25.63
2023-12-30T23:31:42.721Z,29.92
2023-12-30T23:34:49.663Z,29.98
2023-12-30T23:37:54.176Z,27.75
2023-12-30T23:40:56.957Z,25.70
2023-12-30T23:44:00.575Z,28.15
2023-12-30T23:47:03.250Z,26.48
2023-12-30T23:50:07.011Z,26.65
2023-12-30T23:53:09.889Z,28.02
2023-12-30T23:56:13.167Z,27.13
2023-12-30T23:59:18.440Z,28.52
